sensor_id;sensor_type;location;lat;lon;timestamp;P1;durP1;ratioP1;P2;durP2;ratioP2
41263;SDS011;26998;48.714;9.414;2022-09-13T00:01:58;5.72;;;4.72;;
41263;SDS011;26998;48.714;9.414;2022-09-13T00:04:24;6.22;;;3.83;;
41263;SDS011;26998;48.714;9.414;2022-09-13T00:06:50;5.53;;;3.90;;
41263;SDS011;26998;48.714;9.414;2022-09-13T00:09:17;4.65;;;4.18;;
41263;SDS011;26998;48.714;9.414;2022-09-13T00:11:43;5.32;;;3.60;;
41263;SDS011;26998;48.714;9.414;2022-09-13T00:14:10;6.32;;;3.55;;
41263;SDS011;26998;48.714;9.414;2022-09-13T00:16:36;4.03;;;3.63;;
41263;SDS011;26998;48.714;9.414;2022-09-13T00:19:02;7.75;;;4.25;;
41263;SDS011;26998;48.714;9.414;2022-09-13T00:21:29;6.28;;;4.13;;
41263;SDS011;26998;48.714;9.414;2022-09-13T00:23:55;5.78;;;3.85;;
41263;SDS011;26998;48.714;9.414;2022-09-13T00:26:23;5.97;;;3.63;;
41263;SDS011;26998;48.714;9.414;2022-09-13T00:28:52;5.22;;;3.67;;
41263;SDS011;26998;48.714;9.414;2022-09-13T00:31:24;7.00;;;3.75;;
41263;SDS011;26998;48.714;9.414;2022-09-13T00:33:51;6.97;;;3.70;;
41263;SDS011;26998;48.714;9.414;2022-09-13T00:36:18;6.78;;;3.70;;
41263;SDS011;26998;48.714;9.414;2022-09-13T00:38:45;4.97;;;3.88;;
41263;SDS011;26998;48.714;9.414;2022-09-13T00:41:15;4.95;;;3.25;;
41263;SDS011;26998;48.714;9.414;2022-09-13T00:43:54;5.03;;;4.05;;
41263;SDS011;26998;48.714;9.414;2022-09-13T00:51:41;5.75;;;4.10;;
41263;SDS011;26998;48.714;9.414;2022-09-13T00:54:11;13.10;;;4.55;;
41263;SDS011;26998;48.714;9.414;2022-09-13T00:56:45;4.35;;;3.95;;
41263;SDS011;26998;48.714;9.414;2022-09-13T00:59:18;4.55;;;3.88;;
41263;SDS011;26998;48.714;9.414;2022-09-13T01:01:52;5.85;;;3.72;;
41263;SDS011;26998;48.714;9.414;2022-09-13T01:04:21;8.30;;;3.80;;
41263;SDS011;26998;48.714;9.414;2022-09-13T01:06:52;6.43;;;4.47;;
41263;SDS011;26998;48.714;9.414;2022-09-13T01:09:22;5.30;;;4.05;;
41263;SDS011;26998;48.714;9.414;2022-09-13T01:11:50;7.53;;;4.10;;
41263;SDS011;26998;48.714;9.414;2022-09-13T01:14:21;7.07;;;4.15;;
41263;SDS011;26998;48.714;9.414;2022-09-13T01:16:49;8.60;;;5.22;;
41263;SDS011;26998;48.714;9.414;2022-09-13T01:19:15;5.35;;;4.35;;
41263;SDS011;26998;48.714;9.414;2022-09-13T01:22:01;8.35;;;4.30;;
41263;SDS011;26998;48.714;9.414;2022-09-13T01:30:31;6.03;;;4.18;;
41263;SDS011;26998;48.714;9.414;2022-09-13T01:38:52;7.53;;;3.67;;
41263;SDS011;26998;48.714;9.414;2022-09-13T01:41:47;6.13;;;4.20;;
41263;SDS011;26998;48.714;9.414;2022-09-13T01:47:17;5.88;;;4.15;;
41263;SDS011;26998;48.714;9.414;2022-09-13T01:50:06;6.63;;;4.55;;
41263;SDS011;26998;48.714;9.414;2022-09-13T01:53:09;6.75;;;4.25;;
41263;SDS011;26998;48.714;9.414;2022-09-13T01:56:26;8.50;;;4.30;;
41263;SDS011;26998;48.714;9.414;2022-09-13T01:58:55;6.25;;;4.07;;
41263;SDS011;26998;48.714;9.414;2022-09-13T02:01:29;4.53;;;4.05;;
41263;SDS011;26998;48.714;9.414;2022-09-13T02:04:26;6.68;;;4.28;;
41263;SDS011;26998;48.714;9.414;2022-09-13T02:06:59;7.05;;;4.68;;
41263;SDS011;26998;48.714;9.414;2022-09-13T02:09:33;5.03;;;4.32;;
41263;SDS011;26998;48.714;9.414;2022-09-13T02:12:08;9.75;;;4.47;;
41263;SDS011;26998;48.714;9.414;2022-09-13T02:14:40;7.28;;;4.30;;
41263;SDS011;26998;48.714;9.414;2022-09-13T02:17:11;6.22;;;4.68;;
41263;SDS011;26998;48.714;9.414;2022-09-13T02:19:43;6.88;;;4.47;;
41263;SDS011;26998;48.714;9.414;2022-09-13T02:22:19;7.32;;;4.18;;
41263;SDS011;26998;48.714;9.414;2022-09-13T02:24:52;6.45;;;4.15;;
41263;SDS011;26998;48.714;9.414;2022-09-13T02:27:23;5.65;;;4.65;;
41263;SDS011;26998;48.714;9.414;2022-09-13T02:29:57;9.40;;;4.68;;
41263;SDS011;26998;48.714;9.414;2022-09-13T02:32:35;9.55;;;4.65;;
41263;SDS011;26998;48.714;9.414;2022-09-13T02:37:39;9.13;;;4.78;;
41263;SDS011;26998;48.714;9.414;2022-09-13T02:40:09;5.15;;;4.47;;
41263;SDS011;26998;48.714;9.414;2022-09-13T02:42:41;7.97;;;4.65;;
41263;SDS011;26998;48.714;9.414;2022-09-13T02:45:10;8.27;;;4.75;;
41263;SDS011;26998;48.714;9.414;2022-09-13T02:47:41;8.80;;;4.65;;
41263;SDS011;26998;48.714;9.414;2022-09-13T02:53:00;6.05;;;4.78;;
41263;SDS011;26998;48.714;9.414;2022-09-13T03:01:17;5.45;;;4.60;;
41263;SDS011;26998;48.714;9.414;2022-09-13T03:03:43;5.60;;;4.25;;
41263;SDS011;26998;48.714;9.414;2022-09-13T03:06:10;7.95;;;4.93;;
41263;SDS011;26998;48.714;9.414;2022-09-13T03:08:36;7.65;;;4.65;;
41263;SDS011;26998;48.714;9.414;2022-09-13T03:19:44;7.30;;;4.45;;
41263;SDS011;26998;48.714;9.414;2022-09-13T03:30:20;5.65;;;4.65;;
41263;SDS011;26998;48.714;9.414;2022-09-13T03:32:50;6.18;;;5.13;;
41263;SDS011;26998;48.714;9.414;2022-09-13T03:38:30;5.15;;;4.55;;
41263;SDS011;26998;48.714;9.414;2022-09-13T03:41:07;8.40;;;4.18;;
41263;SDS011;26998;48.714;9.414;2022-09-13T03:43:39;7.45;;;4.78;;
41263;SDS011;26998;48.714;9.414;2022-09-13T03:46:53;8.35;;;4.57;;
41263;SDS011;26998;48.714;9.414;2022-09-13T03:49:02;7.60;;;4.40;;
41263;SDS011;26998;48.714;9.414;2022-09-13T03:51:32;6.22;;;4.55;;
41263;SDS011;26998;48.714;9.414;2022-09-13T03:54:00;7.32;;;4.93;;
41263;SDS011;26998;48.714;9.414;2022-09-13T03:56:29;6.75;;;4.65;;
41263;SDS011;26998;48.714;9.414;2022-09-13T03:58:56;8.20;;;4.85;;
41263;SDS011;26998;48.714;9.414;2022-09-13T04:01:23;5.35;;;4.43;;
41263;SDS011;26998;48.714;9.414;2022-09-13T04:03:50;6.75;;;4.70;;
41263;SDS011;26998;48.714;9.414;2022-09-13T04:06:21;6.35;;;4.65;;
41263;SDS011;26998;48.714;9.414;2022-09-13T04:08:48;5.82;;;4.15;;
41263;SDS011;26998;48.714;9.414;2022-09-13T04:11:14;5.85;;;4.53;;
41263;SDS011;26998;48.714;9.414;2022-09-13T04:13:41;5.22;;;4.55;;
41263;SDS011;26998;48.714;9.414;2022-09-13T04:16:07;4.93;;;4.43;;
41263;SDS011;26998;48.714;9.414;2022-09-13T04:18:34;7.50;;;4.95;;
41263;SDS011;26998;48.714;9.414;2022-09-13T04:21:01;7.57;;;4.57;;
41263;SDS011;26998;48.714;9.414;2022-09-13T04:23:28;5.65;;;4.30;;
41263;SDS011;26998;48.714;9.414;2022-09-13T04:25:59;5.90;;;4.88;;
41263;SDS011;26998;48.714;9.414;2022-09-13T04:28:27;7.63;;;4.80;;
41263;SDS011;26998;48.714;9.414;2022-09-13T04:30:53;10.13;;;5.90;;
41263;SDS011;26998;48.714;9.414;2022-09-13T04:33:20;22.17;;;5.93;;
41263;SDS011;26998;48.714;9.414;2022-09-13T04:35:46;5.18;;;4.68;;
41263;SDS011;26998;48.714;9.414;2022-09-13T04:38:13;9.32;;;5.07;;
41263;SDS011;26998;48.714;9.414;2022-09-13T04:40:39;7.47;;;4.75;;
41263;SDS011;26998;48.714;9.414;2022-09-13T04:43:06;11.48;;;6.07;;
41263;SDS011;26998;48.714;9.414;2022-09-13T04:45:32;5.82;;;5.10;;
41263;SDS011;26998;48.714;9.414;2022-09-13T04:47:59;9.10;;;5.70;;
41263;SDS011;26998;48.714;9.414;2022-09-13T04:50:25;8.75;;;4.82;;
41263;SDS011;26998;48.714;9.414;2022-09-13T04:52:55;11.45;;;6.40;;
41263;SDS011;26998;48.714;9.414;2022-09-13T04:55:21;6.25;;;5.65;;
41263;SDS011;26998;48.714;9.414;2022-09-13T04:57:51;7.60;;;5.53;;
41263;SDS011;26998;48.714;9.414;2022-09-13T05:00:18;9.43;;;5.68;;
41263;SDS011;26998;48.714;9.414;2022-09-13T05:02:44;9.75;;;5.00;;
41263;SDS011;26998;48.714;9.414;2022-09-13T05:05:11;8.35;;;5.10;;
41263;SDS011;26998;48.714;9.414;2022-09-13T05:07:37;13.13;;;5.43;;
41263;SDS011;26998;48.714;9.414;2022-09-13T05:10:04;11.55;;;5.90;;
41263;SDS011;26998;48.714;9.414;2022-09-13T05:12:31;6.38;;;4.43;;
41263;SDS011;26998;48.714;9.414;2022-09-13T05:14:57;9.77;;;5.25;;
41263;SDS011;26998;48.714;9.414;2022-09-13T05:17:23;8.77;;;6.18;;
41263;SDS011;26998;48.714;9.414;2022-09-13T05:19:50;6.45;;;5.03;;
41263;SDS011;26998;48.714;9.414;2022-09-13T05:22:16;8.75;;;5.40;;
41263;SDS011;26998;48.714;9.414;2022-09-13T05:24:42;7.75;;;5.40;;
41263;SDS011;26998;48.714;9.414;2022-09-13T05:27:09;7.80;;;5.65;;
41263;SDS011;26998;48.714;9.414;2022-09-13T05:29:35;8.77;;;5.53;;
41263;SDS011;26998;48.714;9.414;2022-09-13T05:32:02;9.43;;;5.80;;
41263;SDS011;26998;48.714;9.414;2022-09-13T05:34:28;8.70;;;5.82;;
41263;SDS011;26998;48.714;9.414;2022-09-13T05:36:55;12.00;;;6.05;;
41263;SDS011;26998;48.714;9.414;2022-09-13T05:39:21;10.60;;;6.22;;
41263;SDS011;26998;48.714;9.414;2022-09-13T05:42:08;8.32;;;5.75;;
41263;SDS011;26998;48.714;9.414;2022-09-13T05:44:34;6.82;;;5.75;;
41263;SDS011;26998;48.714;9.414;2022-09-13T05:47:01;7.80;;;5.82;;
41263;SDS011;26998;48.714;9.414;2022-09-13T05:49:28;11.25;;;5.75;;
41263;SDS011;26998;48.714;9.414;2022-09-13T05:51:54;7.78;;;5.47;;
41263;SDS011;26998;48.714;9.414;2022-09-13T05:54:20;7.25;;;5.50;;
41263;SDS011;26998;48.714;9.414;2022-09-13T05:56:47;8.15;;;6.10;;
41263;SDS011;26998;48.714;9.414;2022-09-13T05:59:13;8.40;;;5.85;;
41263;SDS011;26998;48.714;9.414;2022-09-13T06:01:40;9.65;;;5.68;;
41263;SDS011;26998;48.714;9.414;2022-09-13T06:04:07;9.35;;;5.82;;
41263;SDS011;26998;48.714;9.414;2022-09-13T06:06:34;8.52;;;5.78;;
41263;SDS011;26998;48.714;9.414;2022-09-13T06:09:00;6.28;;;5.22;;
41263;SDS011;26998;48.714;9.414;2022-09-13T06:11:27;11.23;;;5.82;;
41263;SDS011;26998;48.714;9.414;2022-09-13T06:13:53;10.65;;;5.80;;
41263;SDS011;26998;48.714;9.414;2022-09-13T06:16:20;12.48;;;5.40;;
41263;SDS011;26998;48.714;9.414;2022-09-13T06:18:47;9.93;;;5.10;;
41263;SDS011;26998;48.714;9.414;2022-09-13T06:21:18;5.97;;;5.20;;
41263;SDS011;26998;48.714;9.414;2022-09-13T06:23:52;8.05;;;5.63;;
41263;SDS011;26998;48.714;9.414;2022-09-13T06:26:23;8.35;;;5.70;;
41263;SDS011;26998;48.714;9.414;2022-09-13T06:28:52;5.38;;;4.82;;
41263;SDS011;26998;48.714;9.414;2022-09-13T06:31:21;8.60;;;4.95;;
41263;SDS011;26998;48.714;9.414;2022-09-13T06:33:53;10.80;;;5.05;;
41263;SDS011;26998;48.714;9.414;2022-09-13T06:36:22;7.30;;;4.93;;
41263;SDS011;26998;48.714;9.414;2022-09-13T06:38:48;9.65;;;4.72;;
41263;SDS011;26998;48.714;9.414;2022-09-13T06:41:16;6.97;;;4.47;;
41263;SDS011;26998;48.714;9.414;2022-09-13T06:43:45;6.38;;;4.63;;
41263;SDS011;26998;48.714;9.414;2022-09-13T06:46:13;8.23;;;5.25;;
41263;SDS011;26998;48.714;9.414;2022-09-13T06:48:41;8.30;;;4.97;;
41263;SDS011;26998;48.714;9.414;2022-09-13T06:51:10;9.77;;;5.60;;
41263;SDS011;26998;48.714;9.414;2022-09-13T06:53:41;7.13;;;5.25;;
41263;SDS011;26998;48.714;9.414;2022-09-13T06:56:16;8.00;;;5.25;;
41263;SDS011;26998;48.714;9.414;2022-09-13T06:58:45;8.25;;;4.95;;
41263;SDS011;26998;48.714;9.414;2022-09-13T07:01:15;5.97;;;4.40;;
41263;SDS011;26998;48.714;9.414;2022-09-13T07:03:59;10.52;;;4.68;;
41263;SDS011;26998;48.714;9.414;2022-09-13T07:06:29;10.47;;;5.33;;
41263;SDS011;26998;48.714;9.414;2022-09-13T07:08:57;9.65;;;5.05;;
41263;SDS011;26998;48.714;9.414;2022-09-13T07:11:27;8.70;;;4.75;;
41263;SDS011;26998;48.714;9.414;2022-09-13T07:13:56;5.57;;;4.75;;
41263;SDS011;26998;48.714;9.414;2022-09-13T07:16:25;7.15;;;4.70;;
41263;SDS011;26998;48.714;9.414;2022-09-13T07:19:01;8.10;;;4.95;;
41263;SDS011;26998;48.714;9.414;2022-09-13T07:21:29;5.35;;;4.70;;
41263;SDS011;26998;48.714;9.414;2022-09-13T07:23:55;7.93;;;5.10;;
41263;SDS011;26998;48.714;9.414;2022-09-13T07:26:22;7.20;;;5.78;;
41263;SDS011;26998;48.714;9.414;2022-09-13T07:28:50;5.22;;;4.55;;
41263;SDS011;26998;48.714;9.414;2022-09-13T07:31:19;6.47;;;4.40;;
41263;SDS011;26998;48.714;9.414;2022-09-13T07:33:54;9.55;;;4.78;;
41263;SDS011;26998;48.714;9.414;2022-09-13T07:36:22;5.55;;;4.35;;
41263;SDS011;26998;48.714;9.414;2022-09-13T07:38:49;7.63;;;4.50;;
41263;SDS011;26998;48.714;9.414;2022-09-13T07:41:17;6.35;;;3.78;;
41263;SDS011;26998;48.714;9.414;2022-09-13T07:43:45;9.65;;;6.22;;
41263;SDS011;26998;48.714;9.414;2022-09-13T07:46:14;7.13;;;5.68;;
41263;SDS011;26998;48.714;9.414;2022-09-13T07:48:42;7.82;;;4.70;;
41263;SDS011;26998;48.714;9.414;2022-09-13T07:51:14;6.20;;;5.10;;
41263;SDS011;26998;48.714;9.414;2022-09-13T07:53:42;7.63;;;4.93;;
41263;SDS011;26998;48.714;9.414;2022-09-13T07:56:11;7.90;;;4.47;;
41263;SDS011;26998;48.714;9.414;2022-09-13T07:58:40;4.43;;;3.65;;
41263;SDS011;26998;48.714;9.414;2022-09-13T08:01:13;8.13;;;4.85;;
41263;SDS011;26998;48.714;9.414;2022-09-13T08:03:43;7.38;;;4.80;;
41263;SDS011;26998;48.714;9.414;2022-09-13T08:06:10;7.45;;;4.20;;
41263;SDS011;26998;48.714;9.414;2022-09-13T08:08:36;5.95;;;3.63;;
41263;SDS011;26998;48.714;9.414;2022-09-13T08:11:03;3.95;;;3.55;;
41263;SDS011;26998;48.714;9.414;2022-09-13T08:13:31;6.90;;;4.40;;
41263;SDS011;26998;48.714;9.414;2022-09-13T08:16:03;5.35;;;3.63;;
41263;SDS011;26998;48.714;9.414;2022-09-13T08:18:31;4.03;;;3.65;;
41263;SDS011;26998;48.714;9.414;2022-09-13T08:20:58;4.60;;;3.22;;
41263;SDS011;26998;48.714;9.414;2022-09-13T08:23:25;5.93;;;3.72;;
41263;SDS011;26998;48.714;9.414;2022-09-13T08:25:52;4.10;;;3.67;;
41263;SDS011;26998;48.714;9.414;2022-09-13T08:28:19;5.50;;;2.90;;
41263;SDS011;26998;48.714;9.414;2022-09-13T08:30:52;4.75;;;2.88;;
41263;SDS011;26998;48.714;9.414;2022-09-13T08:33:19;6.90;;;3.50;;
41263;SDS011;26998;48.714;9.414;2022-09-13T08:35:52;3.50;;;2.60;;
41263;SDS011;26998;48.714;9.414;2022-09-13T08:38:18;5.95;;;2.70;;
41263;SDS011;26998;48.714;9.414;2022-09-13T08:40:49;4.63;;;3.42;;
41263;SDS011;26998;48.714;9.414;2022-09-13T08:46:06;4.20;;;2.80;;
41263;SDS011;26998;48.714;9.414;2022-09-13T08:48:38;4.30;;;2.88;;
41263;SDS011;26998;48.714;9.414;2022-09-13T08:51:13;8.98;;;2.97;;
41263;SDS011;26998;48.714;9.414;2022-09-13T08:53:49;3.30;;;2.35;;
41263;SDS011;26998;48.714;9.414;2022-09-13T08:56:21;6.95;;;3.08;;
41263;SDS011;26998;48.714;9.414;2022-09-13T09:02:27;5.13;;;3.13;;
41263;SDS011;26998;48.714;9.414;2022-09-13T09:04:47;3.40;;;2.90;;
41263;SDS011;26998;48.714;9.414;2022-09-13T09:07:21;4.30;;;2.85;;
41263;SDS011;26998;48.714;9.414;2022-09-13T09:09:52;5.50;;;3.13;;
41263;SDS011;26998;48.714;9.414;2022-09-13T09:12:47;4.88;;;2.88;;
41263;SDS011;26998;48.714;9.414;2022-09-13T09:15:25;7.22;;;2.85;;
41263;SDS011;26998;48.714;9.414;2022-09-13T09:21:09;2.90;;;2.60;;
41263;SDS011;26998;48.714;9.414;2022-09-13T09:23:40;8.90;;;2.53;;
41263;SDS011;26998;48.714;9.414;2022-09-13T09:26:21;2.35;;;2.10;;
41263;SDS011;26998;48.714;9.414;2022-09-13T09:37:20;2.10;;;1.75;;
41263;SDS011;26998;48.714;9.414;2022-09-13T09:39:48;2.03;;;1.83;;
41263;SDS011;26998;48.714;9.414;2022-09-13T09:42:16;4.95;;;2.28;;
41263;SDS011;26998;48.714;9.414;2022-09-13T09:44:47;2.10;;;1.75;;
41263;SDS011;26998;48.714;9.414;2022-09-13T09:47:24;5.10;;;1.80;;
41263;SDS011;26998;48.714;9.414;2022-09-13T09:49:57;3.70;;;1.95;;
41263;SDS011;26998;48.714;9.414;2022-09-13T09:52:34;3.58;;;1.60;;
41263;SDS011;26998;48.714;9.414;2022-09-13T09:55:13;4.15;;;2.00;;
41263;SDS011;26998;48.714;9.414;2022-09-13T09:57:59;3.10;;;1.60;;
41263;SDS011;26998;48.714;9.414;2022-09-13T10:00:28;2.97;;;1.50;;
41263;SDS011;26998;48.714;9.414;2022-09-13T10:02:58;2.53;;;1.75;;
41263;SDS011;26998;48.714;9.414;2022-09-13T10:07:55;2.80;;;1.58;;
41263;SDS011;26998;48.714;9.414;2022-09-13T10:13:00;4.32;;;1.50;;
41263;SDS011;26998;48.714;9.414;2022-09-13T10:15:30;1.67;;;1.30;;
41263;SDS011;26998;48.714;9.414;2022-09-13T10:18:04;4.07;;;2.00;;
41263;SDS011;26998;48.714;9.414;2022-09-13T10:21:19;4.25;;;1.40;;
41263;SDS011;26998;48.714;9.414;2022-09-13T10:23:48;3.40;;;1.63;;
41263;SDS011;26998;48.714;9.414;2022-09-13T10:26:16;2.92;;;1.55;;
41263;SDS011;26998;48.714;9.414;2022-09-13T10:28:55;3.67;;;1.50;;
41263;SDS011;26998;48.714;9.414;2022-09-13T10:31:29;4.95;;;1.90;;
41263;SDS011;26998;48.714;9.414;2022-09-13T10:34:00;5.72;;;1.92;;
41263;SDS011;26998;48.714;9.414;2022-09-13T10:36:31;3.58;;;2.20;;
41263;SDS011;26998;48.714;9.414;2022-09-13T10:39:18;5.18;;;2.00;;
41263;SDS011;26998;48.714;9.414;2022-09-13T10:42:01;5.63;;;2.50;;
41263;SDS011;26998;48.714;9.414;2022-09-13T10:44:39;2.60;;;1.75;;
41263;SDS011;26998;48.714;9.414;2022-09-13T10:47:11;6.28;;;2.10;;
41263;SDS011;26998;48.714;9.414;2022-09-13T10:49:48;9.85;;;2.33;;
41263;SDS011;26998;48.714;9.414;2022-09-13T10:52:22;2.83;;;1.73;;
41263;SDS011;26998;48.714;9.414;2022-09-13T10:54:52;1.50;;;1.40;;
41263;SDS011;26998;48.714;9.414;2022-09-13T10:57:30;2.80;;;1.50;;
41263;SDS011;26998;48.714;9.414;2022-09-13T11:00:00;1.88;;;1.33;;
41263;SDS011;26998;48.714;9.414;2022-09-13T11:02:36;0.90;;;0.90;;
41263;SDS011;26998;48.714;9.414;2022-09-13T11:05:08;2.30;;;1.17;;
41263;SDS011;26998;48.714;9.414;2022-09-13T11:21:47;0.90;;;0.90;;
41263;SDS011;26998;48.714;9.414;2022-09-13T11:30:17;3.55;;;1.30;;
41263;SDS011;26998;48.714;9.414;2022-09-13T11:32:54;2.60;;;1.15;;
41263;SDS011;26998;48.714;9.414;2022-09-13T11:41:31;3.53;;;1.20;;
41263;SDS011;26998;48.714;9.414;2022-09-13T11:46:45;2.55;;;1.02;;
41263;SDS011;26998;48.714;9.414;2022-09-13T11:49:33;1.98;;;1.10;;
41263;SDS011;26998;48.714;9.414;2022-09-13T11:52:39;1.55;;;0.98;;
41263;SDS011;26998;48.714;9.414;2022-09-13T11:57:39;0.75;;;0.70;;
41263;SDS011;26998;48.714;9.414;2022-09-13T12:00:18;2.50;;;1.00;;
41263;SDS011;26998;48.714;9.414;2022-09-13T12:03:01;1.38;;;1.10;;
41263;SDS011;26998;48.714;9.414;2022-09-13T12:06:19;1.33;;;1.20;;
41263;SDS011;26998;48.714;9.414;2022-09-13T12:08:35;1.05;;;0.80;;
41263;SDS011;26998;48.714;9.414;2022-09-13T12:11:09;3.50;;;1.02;;
41263;SDS011;26998;48.714;9.414;2022-09-13T12:14:24;3.83;;;0.82;;
41263;SDS011;26998;48.714;9.414;2022-09-13T12:16:37;4.03;;;1.17;;
41263;SDS011;26998;48.714;9.414;2022-09-13T12:21:47;2.50;;;1.00;;
41263;SDS011;26998;48.714;9.414;2022-09-13T12:27:28;3.92;;;1.27;;
41263;SDS011;26998;48.714;9.414;2022-09-13T12:30:17;2.22;;;0.70;;
41263;SDS011;26998;48.714;9.414;2022-09-13T12:32:46;2.95;;;1.13;;
41263;SDS011;26998;48.714;9.414;2022-09-13T12:35:27;1.95;;;0.77;;
41263;SDS011;26998;48.714;9.414;2022-09-13T12:40:47;1.65;;;0.80;;
41263;SDS011;26998;48.714;9.414;2022-09-13T12:43:37;3.40;;;0.88;;
41263;SDS011;26998;48.714;9.414;2022-09-13T12:54:31;5.22;;;1.10;;
41263;SDS011;26998;48.714;9.414;2022-09-13T12:57:17;3.05;;;0.93;;
41263;SDS011;26998;48.714;9.414;2022-09-13T13:03:04;1.02;;;0.65;;
41263;SDS011;26998;48.714;9.414;2022-09-13T13:05:35;0.57;;;0.57;;
41263;SDS011;26998;48.714;9.414;2022-09-13T13:11:05;0.80;;;0.63;;
41263;SDS011;26998;48.714;9.414;2022-09-13T13:13:36;0.70;;;0.60;;
41263;SDS011;26998;48.714;9.414;2022-09-13T13:18:57;0.50;;;0.50;;
41263;SDS011;26998;48.714;9.414;2022-09-13T13:21:27;0.52;;;0.52;;
41263;SDS011;26998;48.714;9.414;2022-09-13T13:26:55;1.13;;;0.98;;
41263;SDS011;26998;48.714;9.414;2022-09-13T13:29:23;0.80;;;0.47;;
41263;SDS011;26998;48.714;9.414;2022-09-13T13:36:49;2.15;;;1.30;;
41263;SDS011;26998;48.714;9.414;2022-09-13T13:49:45;0.55;;;0.52;;
41263;SDS011;26998;48.714;9.414;2022-09-13T14:05:37;0.70;;;0.70;;
41263;SDS011;26998;48.714;9.414;2022-09-13T14:14:03;0.60;;;0.50;;
41263;SDS011;26998;48.714;9.414;2022-09-13T14:21:43;1.80;;;0.70;;
41263;SDS011;26998;48.714;9.414;2022-09-13T14:24:16;4.50;;;1.15;;
41263;SDS011;26998;48.714;9.414;2022-09-13T14:26:49;1.23;;;0.70;;
41263;SDS011;26998;48.714;9.414;2022-09-13T14:29:18;0.82;;;0.50;;
41263;SDS011;26998;48.714;9.414;2022-09-13T14:31:50;0.68;;;0.68;;
41263;SDS011;26998;48.714;9.414;2022-09-13T14:36:54;1.23;;;0.70;;
41263;SDS011;26998;48.714;9.414;2022-09-13T14:39:22;1.25;;;0.80;;
41263;SDS011;26998;48.714;9.414;2022-09-13T14:41:56;3.08;;;0.88;;
41263;SDS011;26998;48.714;9.414;2022-09-13T14:44:24;1.15;;;0.88;;
41263;SDS011;26998;48.714;9.414;2022-09-13T14:46:57;1.65;;;0.68;;
41263;SDS011;26998;48.714;9.414;2022-09-13T14:49:29;1.10;;;0.73;;
41263;SDS011;26998;48.714;9.414;2022-09-13T14:52:00;2.15;;;0.80;;
41263;SDS011;26998;48.714;9.414;2022-09-13T14:54:33;2.25;;;1.10;;
41263;SDS011;26998;48.714;9.414;2022-09-13T14:57:09;1.10;;;0.75;;
41263;SDS011;26998;48.714;9.414;2022-09-13T15:00:15;0.80;;;0.73;;
41263;SDS011;26998;48.714;9.414;2022-09-13T15:02:40;2.67;;;1.02;;
41263;SDS011;26998;48.714;9.414;2022-09-13T15:05:13;1.80;;;0.60;;
41263;SDS011;26998;48.714;9.414;2022-09-13T15:17:57;1.40;;;0.88;;
41263;SDS011;26998;48.714;9.414;2022-09-13T15:20:25;1.65;;;0.73;;
41263;SDS011;26998;48.714;9.414;2022-09-13T15:22:54;3.20;;;1.05;;
41263;SDS011;26998;48.714;9.414;2022-09-13T15:25:27;1.55;;;0.70;;
41263;SDS011;26998;48.714;9.414;2022-09-13T15:27:55;1.10;;;0.82;;
41263;SDS011;26998;48.714;9.414;2022-09-13T15:30:24;3.13;;;0.88;;
41263;SDS011;26998;48.714;9.414;2022-09-13T15:33:21;0.63;;;0.63;;
41263;SDS011;26998;48.714;9.414;2022-09-13T15:35:47;1.85;;;0.98;;
41263;SDS011;26998;48.714;9.414;2022-09-13T15:38:15;1.23;;;0.85;;
41263;SDS011;26998;48.714;9.414;2022-09-13T15:40:46;1.65;;;0.82;;
41263;SDS011;26998;48.714;9.414;2022-09-13T15:43:22;1.17;;;0.90;;
41263;SDS011;26998;48.714;9.414;2022-09-13T15:45:49;1.50;;;0.70;;
41263;SDS011;26998;48.714;9.414;2022-09-13T15:48:19;1.38;;;0.70;;
41263;SDS011;26998;48.714;9.414;2022-09-13T15:51:05;2.17;;;0.90;;
41263;SDS011;26998;48.714;9.414;2022-09-13T15:53:37;1.85;;;0.68;;
41263;SDS011;26998;48.714;9.414;2022-09-13T15:56:05;1.00;;;0.90;;
41263;SDS011;26998;48.714;9.414;2022-09-13T15:58:33;4.78;;;0.90;;
41263;SDS011;26998;48.714;9.414;2022-09-13T16:01:00;0.77;;;0.70;;
41263;SDS011;26998;48.714;9.414;2022-09-13T16:03:27;1.17;;;1.00;;
41263;SDS011;26998;48.714;9.414;2022-09-13T16:05:54;1.40;;;1.00;;
41263;SDS011;26998;48.714;9.414;2022-09-13T16:08:22;1.27;;;0.60;;
41263;SDS011;26998;48.714;9.414;2022-09-13T16:10:49;1.38;;;0.90;;
41263;SDS011;26998;48.714;9.414;2022-09-13T16:13:16;1.10;;;1.00;;
41263;SDS011;26998;48.714;9.414;2022-09-13T16:15:42;0.60;;;0.60;;
41263;SDS011;26998;48.714;9.414;2022-09-13T16:18:08;2.05;;;1.10;;
41263;SDS011;26998;48.714;9.414;2022-09-13T16:20:35;1.17;;;0.70;;
41263;SDS011;26998;48.714;9.414;2022-09-13T16:23:02;1.13;;;0.90;;
41263;SDS011;26998;48.714;9.414;2022-09-13T16:25:28;4.85;;;0.82;;
41263;SDS011;26998;48.714;9.414;2022-09-13T16:27:55;0.70;;;0.70;;
41263;SDS011;26998;48.714;9.414;2022-09-13T16:30:21;1.90;;;0.70;;
41263;SDS011;26998;48.714;9.414;2022-09-13T16:32:48;1.80;;;0.90;;
41263;SDS011;26998;48.714;9.414;2022-09-13T16:35:14;0.73;;;0.68;;
41263;SDS011;26998;48.714;9.414;2022-09-13T16:37:41;1.50;;;0.85;;
41263;SDS011;26998;48.714;9.414;2022-09-13T16:40:08;4.10;;;0.98;;
41263;SDS011;26998;48.714;9.414;2022-09-13T16:42:35;0.98;;;0.70;;
41263;SDS011;26998;48.714;9.414;2022-09-13T16:45:02;1.30;;;0.80;;
41263;SDS011;26998;48.714;9.414;2022-09-13T16:47:29;1.40;;;0.90;;
41263;SDS011;26998;48.714;9.414;2022-09-13T16:49:56;1.08;;;0.98;;
41263;SDS011;26998;48.714;9.414;2022-09-13T16:52:22;1.65;;;0.90;;
41263;SDS011;26998;48.714;9.414;2022-09-13T16:54:49;1.73;;;0.73;;
41263;SDS011;26998;48.714;9.414;2022-09-13T16:57:15;0.70;;;0.70;;
41263;SDS011;26998;48.714;9.414;2022-09-13T16:59:41;0.65;;;0.65;;
41263;SDS011;26998;48.714;9.414;2022-09-13T17:02:11;0.98;;;0.98;;
41263;SDS011;26998;48.714;9.414;2022-09-13T17:04:38;1.50;;;1.00;;
41263;SDS011;26998;48.714;9.414;2022-09-13T17:07:05;1.08;;;1.00;;
41263;SDS011;26998;48.714;9.414;2022-09-13T17:09:34;2.38;;;0.98;;
41263;SDS011;26998;48.714;9.414;2022-09-13T17:12:00;1.33;;;1.23;;
41263;SDS011;26998;48.714;9.414;2022-09-13T17:14:27;1.60;;;1.00;;
41263;SDS011;26998;48.714;9.414;2022-09-13T17:16:54;2.13;;;1.15;;
41263;SDS011;26998;48.714;9.414;2022-09-13T17:19:24;1.98;;;1.02;;
41263;SDS011;26998;48.714;9.414;2022-09-13T17:21:52;2.78;;;1.30;;
41263;SDS011;26998;48.714;9.414;2022-09-13T17:24:19;5.13;;;1.58;;
41263;SDS011;26998;48.714;9.414;2022-09-13T17:26:45;3.72;;;1.30;;
41263;SDS011;26998;48.714;9.414;2022-09-13T17:29:12;3.63;;;1.67;;
41263;SDS011;26998;48.714;9.414;2022-09-13T17:31:40;1.38;;;1.25;;
41263;SDS011;26998;48.714;9.414;2022-09-13T17:34:07;2.45;;;1.15;;
41263;SDS011;26998;48.714;9.414;2022-09-13T17:36:34;1.67;;;0.95;;
41263;SDS011;26998;48.714;9.414;2022-09-13T17:39:01;1.38;;;1.27;;
41263;SDS011;26998;48.714;9.414;2022-09-13T17:41:28;2.45;;;1.73;;
41263;SDS011;26998;48.714;9.414;2022-09-13T17:43:54;4.45;;;2.15;;
41263;SDS011;26998;48.714;9.414;2022-09-13T17:46:23;5.30;;;2.50;;
41263;SDS011;26998;48.714;9.414;2022-09-13T17:48:52;3.22;;;2.78;;
41263;SDS011;26998;48.714;9.414;2022-09-13T17:51:20;7.32;;;2.60;;
41263;SDS011;26998;48.714;9.414;2022-09-13T17:53:49;3.78;;;2.20;;
41263;SDS011;26998;48.714;9.414;2022-09-13T17:56:22;4.20;;;2.20;;
41263;SDS011;26998;48.714;9.414;2022-09-13T17:58:50;1.70;;;1.60;;
41263;SDS011;26998;48.714;9.414;2022-09-13T18:01:17;5.35;;;2.03;;
41263;SDS011;26998;48.714;9.414;2022-09-13T18:03:44;7.97;;;3.65;;
41263;SDS011;26998;48.714;9.414;2022-09-13T18:06:11;5.60;;;4.22;;
41263;SDS011;26998;48.714;9.414;2022-09-13T18:08:38;5.50;;;2.30;;
41263;SDS011;26998;48.714;9.414;2022-09-13T18:11:06;5.03;;;1.75;;
41263;SDS011;26998;48.714;9.414;2022-09-13T18:13:39;3.22;;;2.58;;
41263;SDS011;26998;48.714;9.414;2022-09-13T18:16:11;3.88;;;2.42;;
41263;SDS011;26998;48.714;9.414;2022-09-13T18:18:46;6.72;;;1.80;;